Portada
METAR-TAF:

METAR-TAF

Aeropuertos :

Aeropuerto de Yakutsk

Yakutsk, Rusia

latitud: 62-01N, longitud: 129-43E, altitud: 103 m

Observación

El informe se hizo hace 25 minutos, a las 01:30 UTC
Viento 4 kt del sureste
Temperatura 17°C
Humedad 59%
Presión 1004 hPa
Visibilidad 10 km o más
Nubes dispersas a una altura de 5000 ft, Cumulonimbus.

METAR: UEEE 220130Z 14002MPS 9999 SCT050CB 17/09 Q1004 R23L/09//60 NOSIG RMK QFE744

Hora: 10:55 (01:55 UTC)

Pronóstico

El informe se hizo hace 2 horas y 55 minutos, a las 23:00 UTC
Pronóstico válido del 22 a las 00 UTC al 23 a las 06 UTC
Viento 6 kt del sur-sureste con ráfagas de 16 kt
Visibilidad 10 km o más
Nubes dispersas a una altura de 3000 ft, Cumulonimbus.
Cielo nuboso a una altura de 10000 ft
Temporalmente
del 22 a las 00 UTC al 22 a las 09 UTC
chaparrones de lluvia

TAF: UEEE 212300Z 2200/2306 16003G08MPS 9999 SCT030CB BKN100 TEMPO 2200/2209 -SHRA

Observaciones y pronósticos meteorológicos de más de 4000 aeropuertos (mensajes METAR y TAF).

Los puntos amarillos y rojos representan las estaciones disponibles.

Ponga el ratón en el punto deseado para ver el nombre de la estación.

Haga clic para ver las observaciones y los pronósticos meteorológicos.

Para cambiar el mapa : haga clic en los botones verdes con una cruz de color negro para hacer un zoom, en el botón verde con un guión para alejar o en las flechas verdes para mapas adyacentes.


METAR-TAF: